»·PEaware :: N5832H KSNA-KCRQ

N5832H :: KSNA-KCRQ

FLIGHT INFORMATION

Flight Status: Arrived
Operator: Privately registered:
United States
More flights under this callsign
Pilot: Fernando A. (32251)
Aircraft: CESSNA 172 SKYHAWK
(C172)
More flights by this aircraft type
Origin: KSNA John Wayne-Orange Co
United States
Destination: KCRQ McClellan-Palomar
United States
More flights between these airports :: More routes between these airports
Route: V23 OCN
File this flight plan on PilotEdge
Remarks:
Altitude:
(Current/Filed)
5,000ft
Speed:
(Current/Filed)
110kts
Departed: 29-Nov-20 02:10 PM
Arrived: 29-Nov-20 02:50 PM
Distance/Time
Traveled:
44nm/0:39
Distance/Time
To Go:
Arrived

Flight Plot

Page will automatically refresh every two minutes.


Map Options




Map Legend


Flown Route
Filed Route
Departure Airport
Arrival Airport
Navaid (VOR, NDB)
Fix

Horizontal Profiles

Position Reports

Time Latitude Longitude Heading Altitude Ground
Speed
29-Nov-20 13:52 33.675232 -117.871822 35 52ft 0kts
29-Nov-20 13:53 33.675232 -117.871822 35 52ft 0kts
29-Nov-20 13:54 33.675232 -117.871822 35 52ft 0kts
29-Nov-20 13:55 33.675232 -117.871822 35 52ft 0kts
29-Nov-20 13:56 33.675232 -117.871822 35 52ft 0kts
29-Nov-20 13:57 33.675232 -117.871822 35 52ft 0kts
29-Nov-20 13:58 33.675232 -117.871822 35 52ft 0kts
29-Nov-20 13:59 33.675232 -117.871822 35 52ft 0kts
29-Nov-20 14:00 33.675232 -117.871822 35 52ft 0kts
29-Nov-20 14:01 33.675232 -117.871822 35 52ft 0kts
29-Nov-20 14:02 33.675232 -117.871822 35 52ft 0kts
29-Nov-20 14:03 33.675232 -117.871822 35 52ft 0kts
29-Nov-20 14:04 33.675093 -117.871254 131 53ft 9kts
29-Nov-20 14:05 33.678003 -117.868883 27 50ft 19kts
29-Nov-20 14:06 33.681293 -117.866736 89 44ft 7kts
29-Nov-20 14:07 33.681236 -117.866504 114 43ft 0kts
29-Nov-20 14:08 33.679583 -117.866409 208 46ft 34kts
29-Nov-20 14:09 33.662328 -117.876453 187 548ft 78kts
29-Nov-20 14:10 33.639812 -117.878459 185 1286ft 81kts
29-Nov-20 14:11 33.616658 -117.880596 184 1946ft 84kts
29-Nov-20 14:12 33.591927 -117.881933 185 2531ft 92kts
29-Nov-20 14:13 33.571328 -117.867194 120 3137ft 98kts
29-Nov-20 14:14 33.561694 -117.837483 113 3794ft 90kts
29-Nov-20 14:15 33.553193 -117.811244 112 4492ft 78kts
29-Nov-20 14:16 33.543304 -117.789111 126 5002ft 80kts
29-Nov-20 14:17 33.524732 -117.764034 130 5017ft 117kts
29-Nov-20 14:18 33.503714 -117.735004 131 4990ft 112kts
29-Nov-20 14:19 33.482163 -117.707898 132 4993ft 115kts
29-Nov-20 14:20 33.459680 -117.679964 133 4988ft 115kts
29-Nov-20 14:21 33.436408 -117.653374 133 4987ft 115kts
29-Nov-20 14:22 33.413200 -117.627020 133 4988ft 115kts
29-Nov-20 14:23 33.390028 -117.600405 132 4987ft 115kts
29-Nov-20 14:24 33.367961 -117.572902 129 4986ft 114kts
29-Nov-20 14:25 33.346863 -117.544170 129 4988ft 114kts
29-Nov-20 14:26 33.324427 -117.516752 133 4988ft 115kts
29-Nov-20 14:27 33.301118 -117.490089 133 4965ft 115kts
29-Nov-20 14:28 33.277394 -117.464178 133 4965ft 115kts
29-Nov-20 14:29 33.256216 -117.435751 126 4964ft 114kts
29-Nov-20 14:30 33.241508 -117.403228 98 4965ft 112kts
29-Nov-20 14:31 33.239873 -117.366001 89 4963ft 112kts
29-Nov-20 14:32 33.240282 -117.328758 88 4970ft 112kts
29-Nov-20 14:33 33.240084 -117.291385 91 4965ft 112kts
29-Nov-20 14:34 33.238402 -117.254116 92 4967ft 112kts
29-Nov-20 14:35 33.235893 -117.216954 94 4964ft 112kts
29-Nov-20 14:36 33.232974 -117.179862 94 4978ft 112kts
29-Nov-20 14:38 33.230049 -117.142828 94 5008ft 115kts
29-Nov-20 14:39 33.227562 -117.103838 92 4999ft 119kts
29-Nov-20 14:40 33.225710 -117.064706 92 5001ft 118kts
29-Nov-20 14:41 33.224030 -117.025748 98 5002ft 114kts
29-Nov-20 14:42 33.196594 -117.029993 220 4441ft 125kts
29-Nov-20 14:43 33.173042 -117.060316 227 3981ft 125kts
29-Nov-20 14:44 33.156363 -117.094641 260 3483ft 127kts
29-Nov-20 14:45 33.151825 -117.136358 258 2761ft 125kts
29-Nov-20 14:46 33.145450 -117.175024 261 2069ft 117kts
29-Nov-20 14:47 33.139269 -117.210686 258 1492ft 99kts
29-Nov-20 14:48 33.134559 -117.241056 256 973ft 88kts
29-Nov-20 14:49 33.130268 -117.267769 257 459ft 77kts
29-Nov-20 14:50 33.127603 -117.279550 134 331ft 3kts
29-Nov-20 14:51 33.127588 -117.279527 122 331ft 0kts
29-Nov-20 14:52 33.127588 -117.279527 122 331ft 0kts
29-Nov-20 14:53 33.127658 -117.278700 78 331ft 12kts
29-Nov-20 14:54 33.127811 -117.275641 168 330ft 2kts
29-Nov-20 14:54 33.127698 -117.275730 255 330ft 0kts

Navigation Log

Ident Type
Flight plan parsing failed, navigation log unavailable